Time;durP1;ratioP1;P1;durP2;ratioP2;P2;SDS_P1;SDS_P2;PMS_P1;PMS_P2;Temp;Humidity;BMP_temperature;BMP_pressure;BME280_temperature;BME280_humidity;BME280_pressure;Samples;Min_cycle;Max_cycle;Signal;HPM_P1;HPM_P2
2022/03/13 00:01:55;;;;;;;21.98;9.90;;;;;;;;;;6217677;28;20378;-75
2022/03/13 00:05:00;;;;;;;20.23;8.30;;;;;;;;;;6219800;28;20196;-74
2022/03/13 00:08:04;;;;;;;15.98;7.97;;;;;;;;;;6216812;28;20041;-74
2022/03/13 00:11:08;;;;;;;20.45;8.82;;;;;;;;;;6215137;28;20397;-74
2022/03/13 00:14:13;;;;;;;17.90;7.88;;;;;;;;;;6216728;28;20060;-75
2022/03/13 00:17:22;;;;;;;17.45;8.00;;;;;;;;;;6218018;28;20042;-73
2022/03/13 00:20:27;;;;;;;17.13;7.75;;;;;;;;;;6217961;28;20136;-73
2022/03/13 00:23:30;;;;;;;19.23;8.50;;;;;;;;;;6218647;28;20537;-74
2022/03/13 00:26:35;;;;;;;17.08;7.32;;;;;;;;;;6220002;28;20054;-74
2022/03/13 00:29:41;;;;;;;17.63;7.50;;;;;;;;;;6217107;28;20416;-74
2022/03/13 00:32:47;;;;;;;14.20;7.07;;;;;;;;;;6216431;28;20041;-74
2022/03/13 00:35:50;;;;;;;18.98;7.03;;;;;;;;;;6197538;28;20516;-74
2022/03/13 00:38:53;;;;;;;13.75;6.72;;;;;;;;;;6216518;28;20045;-75
2022/03/13 00:41:58;;;;;;;16.48;6.82;;;;;;;;;;6199800;28;20038;-76
2022/03/13 00:45:03;;;;;;;15.00;7.22;;;;;;;;;;6219237;28;20049;-75
2022/03/13 00:48:07;;;;;;;18.38;7.57;;;;;;;;;;6219858;28;20492;-74
2022/03/13 00:51:12;;;;;;;15.25;7.25;;;;;;;;;;6218205;28;20058;-74
2022/03/13 00:54:15;;;;;;;15.90;7.18;;;;;;;;;;6218377;28;20411;-74
2022/03/13 00:57:19;;;;;;;14.98;6.47;;;;;;;;;;6218842;28;20499;-74
2022/03/13 01:00:23;;;;;;;14.75;6.95;;;;;;;;;;6219373;28;20057;-74
2022/03/13 01:03:47;;;;;;;16.40;7.10;;;;;;;;;;6219552;28;20404;-75
2022/03/13 01:06:50;;;;;;;14.45;7.35;;;;;;;;;;6201362;28;20042;-75
2022/03/13 01:09:53;;;;;;;17.92;6.88;;;;;;;;;;6219328;28;20038;-75
2022/03/13 01:12:58;;;;;;;16.05;7.00;;;;;;;;;;6219221;28;20160;-75
2022/03/13 01:16:12;;;;;;;16.02;7.07;;;;;;;;;;6201847;28;20045;-75
2022/03/13 01:19:15;;;;;;;17.17;7.03;;;;;;;;;;6218161;28;20821;-76
2022/03/13 01:22:19;;;;;;;13.65;7.43;;;;;;;;;;6218439;28;20107;-76
2022/03/13 01:25:24;;;;;;;15.77;6.70;;;;;;;;;;6218840;28;20046;-75
2022/03/13 01:28:28;;;;;;;18.98;7.30;;;;;;;;;;6218515;28;20299;-75
2022/03/13 01:31:33;;;;;;;15.48;6.45;;;;;;;;;;6200925;28;20128;-76
2022/03/13 01:34:41;;;;;;;13.50;7.18;;;;;;;;;;6218143;28;20049;-75
2022/03/13 01:37:47;;;;;;;18.77;7.57;;;;;;;;;;6219064;28;20153;-76
2022/03/13 01:40:50;;;;;;;15.63;7.78;;;;;;;;;;6217773;28;20045;-75
2022/03/13 01:43:53;;;;;;;15.38;7.50;;;;;;;;;;6215857;28;20485;-75
2022/03/13 01:46:58;;;;;;;20.40;7.65;;;;;;;;;;6214565;28;20493;-75
2022/03/13 01:50:03;;;;;;;17.60;7.28;;;;;;;;;;6216919;28;20038;-75
2022/03/13 01:53:08;;;;;;;14.35;6.78;;;;;;;;;;6217790;28;20048;-74
2022/03/13 01:56:13;;;;;;;14.23;6.40;;;;;;;;;;6218002;28;20390;-75
2022/03/13 01:59:19;;;;;;;14.18;7.63;;;;;;;;;;6218114;28;20054;-76
2022/03/13 02:02:25;;;;;;;15.07;6.97;;;;;;;;;;6213880;28;20052;-75
2022/03/13 02:05:28;;;;;;;;;;;;;;;;;;6213498;28;20312;-75
2022/03/13 02:08:32;;;;;;;16.27;7.30;;;;;;;;;;6212639;28;19980;-75
2022/03/13 02:11:41;;;;;;;;;;;;;;;;;;6195876;28;20068;-76
2022/03/13 02:14:47;;;;;;;17.17;8.10;;;;;;;;;;6215429;28;20323;-75
2022/03/13 02:17:51;;;;;;;15.80;7.45;;;;;;;;;;6199402;28;20045;-76
2022/03/13 02:20:54;;;;;;;17.42;7.57;;;;;;;;;;6218671;28;20056;-75
2022/03/13 02:24:08;;;;;;;15.43;6.70;;;;;;;;;;6199716;28;20054;-76
2022/03/13 02:27:10;;;;;;;16.90;7.40;;;;;;;;;;6217937;28;20103;-76
2022/03/13 02:30:16;;;;;;;15.52;7.05;;;;;;;;;;6216395;28;20042;-76
2022/03/13 02:33:20;;;;;;;18.90;7.32;;;;;;;;;;6214530;28;20042;-76
2022/03/13 02:36:24;;;;;;;17.63;7.22;;;;;;;;;;6189264;28;20058;-76
2022/03/13 02:39:29;;;;;;;16.75;7.63;;;;;;;;;;6190278;28;20042;-76
2022/03/13 02:42:32;;;;;;;17.58;7.55;;;;;;;;;;6191825;28;20050;-75
2022/03/13 02:45:36;;;;;;;16.50;7.18;;;;;;;;;;6191519;28;20133;-75
2022/03/13 02:48:39;;;;;;;14.00;6.35;;;;;;;;;;6193253;28;20042;-75
2022/03/13 02:51:42;;;;;;;15.63;7.18;;;;;;;;;;6193280;28;20054;-75
2022/03/13 02:54:48;;;;;;;17.35;7.32;;;;;;;;;;6192552;28;20101;-75
2022/03/13 02:57:51;;;;;;;18.55;7.43;;;;;;;;;;6193114;28;20050;-75
2022/03/13 03:00:54;;;;;;;17.70;7.13;;;;;;;;;;6192688;28;20416;-76
2022/03/13 03:03:57;;;;;;;15.38;6.40;;;;;;;;;;6193040;28;20058;-75
2022/03/13 03:07:01;;;;;;;16.48;7.75;;;;;;;;;;6207405;28;20050;-75
2022/03/13 03:10:06;;;;;;;15.98;6.70;;;;;;;;;;6193108;28;20129;-75
2022/03/13 03:13:10;;;;;;;16.53;7.03;;;;;;;;;;6193313;28;20046;-75
2022/03/13 03:16:13;;;;;;;16.25;7.20;;;;;;;;;;6207475;28;20417;-75
2022/03/13 03:19:16;;;;;;;16.10;6.90;;;;;;;;;;6193166;28;20046;-76
2022/03/13 03:22:19;;;;;;;16.27;7.78;;;;;;;;;;6192518;28;20054;-75
2022/03/13 03:25:24;;;;;;;20.77;7.53;;;;;;;;;;6191287;28;20413;-75
2022/03/13 03:28:27;;;;;;;18.40;6.85;;;;;;;;;;6192721;28;20500;-75
2022/03/13 03:31:30;;;;;;;16.77;7.32;;;;;;;;;;6192514;28;20050;-75
2022/03/13 03:34:33;;;;;;;21.48;7.30;;;;;;;;;;6199639;28;20109;-75
2022/03/13 03:37:36;;;;;;;18.23;7.18;;;;;;;;;;6216746;28;20084;-75
2022/03/13 03:40:40;;;;;;;15.07;7.15;;;;;;;;;;6217060;28;20045;-75
2022/03/13 03:43:43;;;;;;;12.82;6.18;;;;;;;;;;6217588;28;20393;-75
2022/03/13 03:46:48;;;;;;;14.90;6.70;;;;;;;;;;6220604;28;20129;-75
2022/03/13 03:49:54;;;;;;;13.68;5.70;;;;;;;;;;6221443;28;20053;-75
2022/03/13 03:52:59;;;;;;;15.80;6.13;;;;;;;;;;6221054;28;20058;-76
2022/03/13 03:56:06;;;;;;;17.83;6.47;;;;;;;;;;6221631;28;20131;-75
2022/03/13 03:59:09;;;;;;;12.52;5.43;;;;;;;;;;6202476;28;20455;-75
2022/03/13 04:02:12;;;;;;;14.90;6.05;;;;;;;;;;6220220;28;20495;-75
2022/03/13 04:05:17;;;;;;;13.70;6.07;;;;;;;;;;6218515;28;20052;-76
2022/03/13 04:08:20;;;;;;;15.32;5.82;;;;;;;;;;6219742;28;20053;-75
2022/03/13 04:11:25;;;;;;;14.10;5.50;;;;;;;;;;6220312;28;20170;-76
2022/03/13 04:14:28;;;;;;;13.48;5.72;;;;;;;;;;6203098;28;20053;-76
2022/03/13 04:17:31;;;;;;;15.98;6.15;;;;;;;;;;6219985;28;20060;-75
2022/03/13 04:20:34;;;;;;;16.25;6.25;;;;;;;;;;6218409;28;20049;-77
2022/03/13 04:23:37;;;;;;;15.23;6.90;;;;;;;;;;6217449;28;20479;-76
2022/03/13 04:26:41;;;;;;;15.05;5.97;;;;;;;;;;6217985;28;20485;-76
2022/03/13 04:29:45;;;;;;;14.10;5.53;;;;;;;;;;6216542;28;20046;-76
2022/03/13 04:32:50;;;;;;;13.65;5.70;;;;;;;;;;6200623;28;20045;-75
2022/03/13 04:35:56;;;;;;;16.38;6.15;;;;;;;;;;6218797;28;20080;-75
2022/03/13 04:38:59;;;;;;;10.98;5.32;;;;;;;;;;6220011;28;20053;-75
2022/03/13 04:42:04;;;;;;;13.32;5.82;;;;;;;;;;6219598;28;20046;-75
2022/03/13 04:45:07;;;;;;;14.93;6.30;;;;;;;;;;6220024;28;20085;-75
2022/03/13 04:48:10;;;;;;;12.05;5.75;;;;;;;;;;6202544;28;20046;-75
2022/03/13 04:51:14;;;;;;;15.15;6.38;;;;;;;;;;6218839;28;20441;-75
2022/03/13 04:54:17;;;;;;;9.82;4.80;;;;;;;;;;6201907;28;20046;-75
2022/03/13 04:57:21;;;;;;;13.10;5.28;;;;;;;;;;6219673;28;20069;-75
2022/03/13 05:00:27;;;;;;;13.75;5.72;;;;;;;;;;6219100;28;20049;-76
2022/03/13 05:03:33;;;;;;;14.82;6.15;;;;;;;;;;6219806;28;20050;-77
2022/03/13 05:06:37;;;;;;;12.77;5.47;;;;;;;;;;6219166;28;20068;-76
2022/03/13 05:09:40;;;;;;;15.60;5.38;;;;;;;;;;6219586;28;20489;-74
2022/03/13 05:12:47;;;;;;;12.98;5.93;;;;;;;;;;6218813;28;20281;-76
2022/03/13 05:15:52;;;;;;;15.38;5.95;;;;;;;;;;6219982;28;20041;-75
2022/03/13 05:18:55;;;;;;;12.15;5.63;;;;;;;;;;6219440;28;20512;-75
2022/03/13 05:21:58;;;;;;;14.90;5.47;;;;;;;;;;6218312;28;20499;-75
2022/03/13 05:25:01;;;;;;;14.25;5.88;;;;;;;;;;6219108;28;20493;-76
2022/03/13 05:28:06;;;;;;;13.45;4.53;;;;;;;;;;6218940;28;20053;-75
2022/03/13 05:31:08;;;;;;;12.57;6.40;;;;;;;;;;6219248;28;20060;-75
2022/03/13 05:34:12;;;;;;;10.90;5.47;;;;;;;;;;6200398;28;20061;-74
2022/03/13 05:37:17;;;;;;;12.17;5.90;;;;;;;;;;6218659;28;20525;-75
2022/03/13 05:40:22;;;;;;;11.20;5.82;;;;;;;;;;6218857;28;20050;-75
2022/03/13 05:43:31;;;;;;;15.63;6.40;;;;;;;;;;6218000;28;20073;-75
2022/03/13 05:46:34;;;;;;;13.18;5.82;;;;;;;;;;6218650;28;20432;-75
2022/03/13 05:49:38;;;;;;;15.43;5.93;;;;;;;;;;6218196;28;20046;-76
2022/03/13 05:52:43;;;;;;;9.80;5.10;;;;;;;;;;6218215;28;20386;-74
2022/03/13 05:55:46;;;;;;;11.63;5.57;;;;;;;;;;6217810;28;20054;-74
2022/03/13 05:58:50;;;;;;;11.73;5.85;;;;;;;;;;6218163;28;20046;-75
2022/03/13 06:01:55;;;;;;;15.48;6.15;;;;;;;;;;6218380;28;20045;-77
2022/03/13 06:04:58;;;;;;;12.35;5.78;;;;;;;;;;6217164;28;20049;-76
2022/03/13 06:08:04;;;;;;;8.82;5.15;;;;;;;;;;6217559;28;20496;-76
2022/03/13 06:11:09;;;;;;;12.18;5.35;;;;;;;;;;6217956;28;20050;-75
2022/03/13 06:14:13;;;;;;;13.10;5.93;;;;;;;;;;6217753;28;20129;-77
2022/03/13 06:17:16;;;;;;;11.25;5.22;;;;;;;;;;6217471;28;20056;-77
2022/03/13 06:20:20;;;;;;;13.65;5.03;;;;;;;;;;6217461;28;20077;-77
2022/03/13 06:23:23;;;;;;;9.30;4.75;;;;;;;;;;6218437;28;20062;-77
2022/03/13 06:26:28;;;;;;;12.02;5.18;;;;;;;;;;6199290;28;20057;-77
2022/03/13 06:29:34;;;;;;;14.57;5.60;;;;;;;;;;6217743;28;20046;-77
2022/03/13 06:32:37;;;;;;;12.43;5.18;;;;;;;;;;6217695;28;20042;-75
2022/03/13 06:35:40;;;;;;;11.45;5.95;;;;;;;;;;6217168;28;20117;-75
2022/03/13 06:38:42;;;;;;;13.40;4.90;;;;;;;;;;6217481;28;20480;-76
2022/03/13 06:41:45;;;;;;;10.93;5.55;;;;;;;;;;6217588;28;20061;-76
2022/03/13 06:44:50;;;;;;;11.45;4.97;;;;;;;;;;6218167;28;20149;-76
2022/03/13 06:47:56;;;;;;;12.98;5.65;;;;;;;;;;6216551;28;20038;-75
2022/03/13 06:50:59;;;;;;;9.57;5.15;;;;;;;;;;6199968;28;20045;-74
2022/03/13 06:54:03;;;;;;;9.68;5.13;;;;;;;;;;6217517;28;20404;-75
2022/03/13 06:57:06;;;;;;;11.45;5.70;;;;;;;;;;6216623;28;20056;-77
2022/03/13 07:00:14;;;;;;;22.88;5.75;;;;;;;;;;6217529;28;20046;-76
2022/03/13 07:03:22;;;;;;;11.10;4.95;;;;;;;;;;6217001;28;20172;-76
2022/03/13 07:06:25;;;;;;;11.82;5.40;;;;;;;;;;6217431;28;20042;-76
2022/03/13 07:09:28;;;;;;;12.65;5.88;;;;;;;;;;6216497;28;20045;-77
2022/03/13 07:12:31;;;;;;;9.88;4.93;;;;;;;;;;6199622;28;20447;-76
2022/03/13 07:15:36;;;;;;;12.05;5.60;;;;;;;;;;6217665;28;20069;-75
2022/03/13 07:18:39;;;;;;;10.52;6.10;;;;;;;;;;6200687;28;20523;-77
2022/03/13 07:21:43;;;;;;;12.02;5.75;;;;;;;;;;6204552;28;20054;-76
2022/03/13 07:24:47;;;;;;;13.82;6.75;;;;;;;;;;6221292;28;20092;-76
2022/03/13 07:27:52;;;;;;;12.70;6.63;;;;;;;;;;6221669;28;20042;-76
2022/03/13 07:30:56;;;;;;;18.30;6.90;;;;;;;;;;6221317;28;20073;-76
2022/03/13 07:34:00;;;;;;;17.73;8.45;;;;;;;;;;6221319;28;20069;-75
2022/03/13 07:37:04;;;;;;;15.73;8.40;;;;;;;;;;6221602;28;20412;-76
2022/03/13 07:40:07;;;;;;;19.63;10.18;;;;;;;;;;6220511;28;20054;-75
2022/03/13 07:43:13;;;;;;;;;;;;;;;;;;6222297;28;20145;-75
2022/03/13 07:46:17;;;;;;;21.88;10.90;;;;;;;;;;6221185;28;20020;-76
2022/03/13 07:49:21;;;;;;;24.60;11.32;;;;;;;;;;6221194;28;20065;-75
2022/03/13 07:52:24;;;;;;;23.77;12.13;;;;;;;;;;6220867;28;20116;-76
2022/03/13 07:55:33;;;;;;;23.95;12.20;;;;;;;;;;6202962;28;20214;-76
2022/03/13 07:58:36;;;;;;;23.85;12.02;;;;;;;;;;6221198;28;20515;-76
2022/03/13 08:01:40;;;;;;;25.48;11.63;;;;;;;;;;6220108;28;20046;-76
2022/03/13 08:04:45;;;;;;;21.60;10.80;;;;;;;;;;6220910;28;20172;-76
2022/03/13 08:07:52;;;;;;;19.92;10.15;;;;;;;;;;6220704;28;20054;-76
2022/03/13 08:10:57;;;;;;;21.45;9.73;;;;;;;;;;6202737;28;20064;-75
2022/03/13 08:14:00;;;;;;;22.90;10.57;;;;;;;;;;6220491;28;20519;-75
2022/03/13 08:17:05;;;;;;;19.50;10.00;;;;;;;;;;6202562;28;20129;-75
2022/03/13 08:20:09;;;;;;;21.95;11.30;;;;;;;;;;6220781;28;20049;-75
2022/03/13 08:23:12;;;;;;;19.15;10.63;;;;;;;;;;6219419;28;20168;-75
2022/03/13 08:26:15;;;;;;;24.75;12.80;;;;;;;;;;6220454;28;20205;-75
2022/03/13 08:29:17;;;;;;;26.92;11.40;;;;;;;;;;6219718;28;20561;-75
2022/03/13 08:32:22;;;;;;;22.88;10.27;;;;;;;;;;6219531;28;20068;-75
2022/03/13 08:35:25;;;;;;;19.27;9.70;;;;;;;;;;6219897;28;20133;-76
2022/03/13 08:38:28;;;;;;;19.00;9.65;;;;;;;;;;6218265;28;20100;-75
2022/03/13 08:41:34;;;;;;;18.08;9.32;;;;;;;;;;6219982;28;20176;-75
2022/03/13 08:44:37;;;;;;;18.08;9.63;;;;;;;;;;6219102;28;20088;-75
2022/03/13 08:47:42;;;;;;;21.02;9.43;;;;;;;;;;6219779;28;20132;-75
2022/03/13 08:50:45;;;;;;;17.35;8.55;;;;;;;;;;6220060;28;20489;-76
2022/03/13 08:53:48;;;;;;;16.85;9.35;;;;;;;;;;6218849;28;20054;-75
2022/03/13 08:56:51;;;;;;;15.10;7.90;;;;;;;;;;6220059;28;20042;-78
2022/03/13 08:59:54;;;;;;;19.02;9.50;;;;;;;;;;6219521;28;20045;-77
2022/03/13 09:02:58;;;;;;;17.60;9.88;;;;;;;;;;6218849;28;20045;-77
2022/03/13 09:06:01;;;;;;;15.95;8.68;;;;;;;;;;6201374;28;20056;-75
2022/03/13 09:09:05;;;;;;;17.42;9.70;;;;;;;;;;6201329;28;20049;-75
2022/03/13 09:12:09;;;;;;;21.00;10.63;;;;;;;;;;6201864;28;20049;-75
2022/03/13 09:15:15;;;;;;;24.05;10.68;;;;;;;;;;6217077;28;20045;-75
2022/03/13 09:18:19;;;;;;;20.45;10.45;;;;;;;;;;6219230;28;20045;-75
2022/03/13 09:21:23;;;;;;;23.15;12.05;;;;;;;;;;6201404;28;20099;-74
2022/03/13 09:24:26;;;;;;;20.02;10.43;;;;;;;;;;6218773;28;20081;-76
2022/03/13 09:27:30;;;;;;;16.73;9.95;;;;;;;;;;6218961;28;20057;-78
2022/03/13 09:30:33;;;;;;;19.25;9.52;;;;;;;;;;6200860;28;20033;-75
2022/03/13 09:33:38;;;;;;;19.45;10.02;;;;;;;;;;6218955;28;20045;-75
2022/03/13 09:36:42;;;;;;;15.23;9.23;;;;;;;;;;6217744;28;20049;-75
2022/03/13 09:39:45;;;;;;;20.60;10.80;;;;;;;;;;6218823;28;20058;-73
2022/03/13 09:42:49;;;;;;;19.52;9.68;;;;;;;;;;6217819;28;20133;-75
2022/03/13 09:45:52;;;;;;;16.02;9.27;;;;;;;;;;6217685;28;20057;-75
2022/03/13 09:48:56;;;;;;;13.98;7.60;;;;;;;;;;6218540;28;20045;-74
2022/03/13 09:52:01;;;;;;;14.13;8.18;;;;;;;;;;6218113;28;20050;-76
2022/03/13 09:55:05;;;;;;;13.80;7.00;;;;;;;;;;6218015;28;20038;-75
2022/03/13 09:58:08;;;;;;;13.13;7.53;;;;;;;;;;6218032;28;20054;-75
2022/03/13 10:01:12;;;;;;;11.65;6.93;;;;;;;;;;6200584;28;20164;-74
2022/03/13 10:04:16;;;;;;;15.65;7.05;;;;;;;;;;6218380;28;20057;-75
2022/03/13 10:07:19;;;;;;;15.45;6.72;;;;;;;;;;6217074;28;20042;-76
2022/03/13 10:10:25;;;;;;;11.27;6.38;;;;;;;;;;6218302;28;20054;-74
2022/03/13 10:13:36;;;;;;;12.02;6.72;;;;;;;;;;6218243;28;20076;-75
2022/03/13 10:16:40;;;;;;;41.47;22.35;;;;;;;;;;6217779;28;20045;-74
2022/03/13 10:19:44;;;;;;;15.18;7.53;;;;;;;;;;6199974;28;20049;-75
2022/03/13 10:22:48;;;;;;;15.18;7.70;;;;;;;;;;6217361;28;20049;-76
2022/03/13 10:25:52;;;;;;;13.90;7.38;;;;;;;;;;6218091;28;20507;-76
2022/03/13 10:28:55;;;;;;;86.15;39.38;;;;;;;;;;6216635;28;20484;-77
2022/03/13 10:31:58;;;;;;;13.02;6.65;;;;;;;;;;6217684;28;20046;-77
2022/03/13 10:35:09;;;;;;;13.75;7.05;;;;;;;;;;6217621;28;20058;-77
2022/03/13 10:38:16;;;;;;;9.25;5.38;;;;;;;;;;6199982;28;20492;-76
2022/03/13 10:41:42;;;;;;;11.93;6.43;;;;;;;;;;6217298;28;20046;-77
2022/03/13 10:44:52;;;;;;;11.23;5.28;;;;;;;;;;6217526;28;20046;-76
2022/03/13 10:48:12;;;;;;;10.15;5.25;;;;;;;;;;6217518;28;20045;-76
2022/03/13 10:51:17;;;;;;;10.85;6.28;;;;;;;;;;6217366;28;20049;-77
2022/03/13 10:54:27;;;;;;;10.13;6.32;;;;;;;;;;6202723;28;20041;-77
2022/03/13 10:57:32;;;;;;;10.40;6.13;;;;;;;;;;6222173;28;20120;-77
2022/03/13 11:00:36;;;;;;;11.75;6.35;;;;;;;;;;6204709;28;20045;-76
2022/03/13 11:03:48;;;;;;;13.38;6.68;;;;;;;;;;6203667;28;20052;-77
2022/03/13 11:06:53;;;;;;;14.00;7.32;;;;;;;;;;6222314;28;20485;-76
2022/03/13 11:09:55;;;;;;;11.73;6.90;;;;;;;;;;6221621;28;20133;-77
2022/03/13 11:12:59;;;;;;;14.52;8.35;;;;;;;;;;6203461;28;20062;-75
2022/03/13 11:16:05;;;;;;;14.43;7.97;;;;;;;;;;6220424;28;20443;-76
2022/03/13 11:19:08;;;;;;;15.40;7.13;;;;;;;;;;6204073;28;20080;-77
2022/03/13 11:22:13;;;;;;;14.27;8.40;;;;;;;;;;6222174;28;20213;-79
2022/03/13 11:25:17;;;;;;;16.40;7.20;;;;;;;;;;6220834;28;20046;-79
2022/03/13 11:28:20;;;;;;;13.50;6.95;;;;;;;;;;6222393;28;20044;-81
2022/03/13 11:31:30;;;;;;;10.13;6.57;;;;;;;;;;6221309;28;20046;-79
2022/03/13 11:34:35;;;;;;;10.82;6.00;;;;;;;;;;6220849;28;20073;-79
2022/03/13 11:37:40;;;;;;;11.38;6.22;;;;;;;;;;6203511;28;20072;-78
2022/03/13 11:40:43;;;;;;;13.10;7.13;;;;;;;;;;6221094;28;20053;-78
2022/03/13 11:43:51;;;;;;;10.07;6.10;;;;;;;;;;6221486;28;20042;-81
2022/03/13 11:46:54;;;;;;;10.98;6.28;;;;;;;;;;6220329;28;20504;-84
2022/03/13 11:49:57;;;;;;;11.05;6.63;;;;;;;;;;6221321;28;20096;-84
2022/03/13 11:53:19;;;;;;;35.83;18.05;;;;;;;;;;6221183;28;20485;-83
2022/03/13 11:56:49;;;;;;;10.80;6.70;;;;;;;;;;6203998;28;20054;-86
2022/03/13 12:00:07;;;;;;;13.35;6.43;;;;;;;;;;6220168;28;20574;-84
2022/03/13 12:03:20;;;;;;;10.90;5.63;;;;;;;;;;6221202;28;20413;-86
2022/03/13 12:06:39;;;;;;;10.27;5.85;;;;;;;;;;6219460;28;20638;-83
2022/03/13 12:09:44;;;;;;;10.38;6.13;;;;;;;;;;6221044;28;20057;-82
2022/03/13 12:13:02;;;;;;;9.48;5.28;;;;;;;;;;6220026;28;20493;-84
2022/03/13 12:16:12;;;;;;;10.02;5.75;;;;;;;;;;6221033;28;20477;-86
2022/03/13 12:19:19;;;;;;;11.25;5.68;;;;;;;;;;6219111;28;20107;-78
2022/03/13 12:22:25;;;;;;;15.25;8.02;;;;;;;;;;6218694;28;20046;-79
2022/03/13 12:25:30;;;;;;;9.27;5.80;;;;;;;;;;6219781;28;20049;-82
2022/03/13 12:28:34;;;;;;;10.00;5.95;;;;;;;;;;6218842;28;20046;-79
2022/03/13 12:31:40;;;;;;;12.15;6.47;;;;;;;;;;6220054;28;20046;-79
2022/03/13 12:34:44;;;;;;;9.02;5.50;;;;;;;;;;6219320;28;20038;-79
2022/03/13 12:37:52;;;;;;;9.82;5.53;;;;;;;;;;6220254;28;20046;-78
2022/03/13 12:40:58;;;;;;;7.80;5.05;;;;;;;;;;6219774;28;20046;-78
2022/03/13 12:44:04;;;;;;;10.65;5.03;;;;;;;;;;6220256;28;20125;-77
2022/03/13 12:47:10;;;;;;;8.40;4.82;;;;;;;;;;6219242;28;20064;-78
2022/03/13 12:50:14;;;;;;;10.95;6.28;;;;;;;;;;6219522;28;20057;-80
2022/03/13 12:53:21;;;;;;;9.85;5.60;;;;;;;;;;6202365;28;20049;-80
2022/03/13 12:56:30;;;;;;;12.88;5.88;;;;;;;;;;6218975;28;20116;-79
2022/03/13 12:59:34;;;;;;;10.07;5.88;;;;;;;;;;6219883;28;20050;-80
2022/03/13 13:02:37;;;;;;;10.63;5.95;;;;;;;;;;6219655;28;20071;-83
2022/03/13 13:05:48;;;;;;;11.68;6.20;;;;;;;;;;6219463;28;20052;-81
2022/03/13 13:08:53;;;;;;;13.73;6.57;;;;;;;;;;6218596;28;20046;-83
2022/03/13 13:11:59;;;;;;;10.77;6.40;;;;;;;;;;6201721;28;20039;-82
2022/03/13 13:15:03;;;;;;;9.63;5.72;;;;;;;;;;6219771;28;20121;-80
2022/03/13 13:18:06;;;;;;;10.05;5.63;;;;;;;;;;6201317;28;20065;-84
2022/03/13 13:21:10;;;;;;;11.65;6.07;;;;;;;;;;6202773;28;20049;-84
2022/03/13 13:24:19;;;;;;;10.55;5.88;;;;;;;;;;6219626;28;20058;-83
2022/03/13 13:27:29;;;;;;;9.68;6.00;;;;;;;;;;6220316;28;20046;-81
2022/03/13 13:30:33;;;;;;;10.20;6.10;;;;;;;;;;6218332;28;20057;-82
2022/03/13 13:33:35;;;;;;;19.50;11.07;;;;;;;;;;6219357;28;20046;-84
2022/03/13 13:36:41;;;;;;;13.05;7.40;;;;;;;;;;6218841;28;20061;-79
2022/03/13 13:39:46;;;;;;;10.90;6.53;;;;;;;;;;6218024;28;20414;-75
2022/03/13 13:42:55;;;;;;;12.73;6.43;;;;;;;;;;6219013;28;20436;-83
2022/03/13 13:46:03;;;;;;;12.10;6.53;;;;;;;;;;6218135;28;20855;-75
2022/03/13 13:49:06;;;;;;;20.60;7.88;;;;;;;;;;6218973;28;20050;-75
2022/03/13 13:52:11;;;;;;;13.10;7.20;;;;;;;;;;6217683;28;20476;-76
2022/03/13 13:55:21;;;;;;;12.93;6.55;;;;;;;;;;6216862;28;20435;-77
2022/03/13 13:58:29;;;;;;;13.00;6.38;;;;;;;;;;6218020;28;20415;-77
2022/03/13 14:01:32;;;;;;;13.07;7.05;;;;;;;;;;6200231;28;20053;-77
2022/03/13 14:04:39;;;;;;;14.40;7.20;;;;;;;;;;6217749;28;20341;-79
2022/03/13 14:07:42;;;;;;;12.82;7.03;;;;;;;;;;6217421;28;20582;-75
2022/03/13 14:10:46;;;;;;;13.88;7.35;;;;;;;;;;6217785;28;20127;-78
2022/03/13 14:13:53;;;;;;;14.35;7.03;;;;;;;;;;6217268;28;20484;-81
2022/03/13 14:16:59;;;;;;;14.57;5.90;;;;;;;;;;6216421;28;20046;-79
2022/03/13 14:20:04;;;;;;;11.85;5.85;;;;;;;;;;6201230;28;20168;-81
2022/03/13 14:23:07;;;;;;;12.30;7.37;;;;;;;;;;6217618;28;20147;-81
2022/03/13 14:26:13;;;;;;;11.35;6.53;;;;;;;;;;6218100;28;20042;-81
2022/03/13 14:29:18;;;;;;;12.15;6.28;;;;;;;;;;6216517;28;20403;-80
2022/03/13 14:32:21;;;;;;;9.07;5.65;;;;;;;;;;6217519;28;20480;-82
2022/03/13 14:35:24;;;;;;;10.05;5.57;;;;;;;;;;6216669;28;20416;-82
2022/03/13 14:38:27;;;;;;;9.60;5.30;;;;;;;;;;6217144;28;20500;-79
2022/03/13 14:41:30;;;;;;;8.38;5.60;;;;;;;;;;6217634;28;20540;-78
2022/03/13 14:44:35;;;;;;;10.25;4.85;;;;;;;;;;6216660;28;20042;-78
2022/03/13 14:47:39;;;;;;;8.18;5.03;;;;;;;;;;6217341;28;20061;-80
2022/03/13 14:51:02;;;;;;;7.13;4.78;;;;;;;;;;6217125;28;20046;-80
2022/03/13 14:54:11;;;;;;;7.03;4.47;;;;;;;;;;6218124;28;20103;-79
2022/03/13 14:57:14;;;;;;;7.95;4.65;;;;;;;;;;6216618;28;20050;-80
2022/03/13 15:00:18;;;;;;;8.70;4.95;;;;;;;;;;6217101;28;20543;-77
2022/03/13 15:03:22;;;;;;;6.70;4.60;;;;;;;;;;6199452;28;20037;-79
2022/03/13 15:06:25;;;;;;;9.35;5.00;;;;;;;;;;6216419;28;20050;-80
2022/03/13 15:09:28;;;;;;;9.75;5.55;;;;;;;;;;6216844;28;20481;-80
2022/03/13 15:12:31;;;;;;;9.32;5.03;;;;;;;;;;6216381;28;20050;-82
2022/03/13 15:15:38;;;;;;;10.18;4.47;;;;;;;;;;6215985;28;20050;-82
2022/03/13 15:18:42;;;;;;;7.88;4.90;;;;;;;;;;6214996;28;20434;-81
2022/03/13 15:21:46;;;;;;;9.10;4.78;;;;;;;;;;6217047;28;20067;-82
2022/03/13 15:24:49;;;;;;;9.13;5.15;;;;;;;;;;6216740;28;20046;-81
2022/03/13 15:27:54;;;;;;;6.70;4.38;;;;;;;;;;6215032;28;20100;-79
2022/03/13 15:30:59;;;;;;;10.15;4.47;;;;;;;;;;6199270;28;20132;-80
2022/03/13 15:34:02;;;;;;;10.45;4.50;;;;;;;;;;6214633;28;20096;-80
2022/03/13 15:37:05;;;;;;;9.25;4.50;;;;;;;;;;6215520;28;20143;-80
2022/03/13 15:40:09;;;;;;;8.35;5.00;;;;;;;;;;6199478;28;20223;-80
2022/03/13 15:43:12;;;;;;;14.57;7.45;;;;;;;;;;6219530;28;20144;-79
2022/03/13 15:46:17;;;;;;;8.30;4.57;;;;;;;;;;6218577;28;20455;-77
2022/03/13 15:49:21;;;;;;;6.95;4.47;;;;;;;;;;6217931;28;20050;-82
2022/03/13 15:52:25;;;;;;;7.43;4.93;;;;;;;;;;6218704;28;20044;-80
2022/03/13 15:55:28;;;;;;;7.45;4.15;;;;;;;;;;6216952;28;20048;-79
2022/03/13 15:58:31;;;;;;;8.80;4.32;;;;;;;;;;6199314;28;20230;-76
2022/03/13 16:01:35;;;;;;;9.55;4.18;;;;;;;;;;6217089;28;20050;-79
2022/03/13 16:04:39;;;;;;;8.43;4.50;;;;;;;;;;6217853;28;20037;-76
2022/03/13 16:07:44;;;;;;;8.73;4.00;;;;;;;;;;6200204;28;20070;-76
2022/03/13 16:10:47;;;;;;;10.98;4.68;;;;;;;;;;6215940;28;20081;-76
2022/03/13 16:13:50;;;;;;;9.60;4.78;;;;;;;;;;6217487;28;20488;-76
2022/03/13 16:16:55;;;;;;;7.80;4.13;;;;;;;;;;6219610;28;20045;-77
2022/03/13 16:19:59;;;;;;;9.50;3.83;;;;;;;;;;6219067;28;20443;-77
2022/03/13 16:23:02;;;;;;;10.77;4.40;;;;;;;;;;6218197;28;20307;-77
2022/03/13 16:26:05;;;;;;;8.52;4.53;;;;;;;;;;6217398;28;20073;-77
2022/03/13 16:29:09;;;;;;;10.98;4.55;;;;;;;;;;6217594;28;20037;-77
2022/03/13 16:32:16;;;;;;;8.00;4.50;;;;;;;;;;6216747;28;20045;-76
2022/03/13 16:35:22;;;;;;;8.80;4.28;;;;;;;;;;6217263;28;20702;-75
2022/03/13 16:38:26;;;;;;;10.32;4.22;;;;;;;;;;6219368;28;20050;-76
2022/03/13 16:41:29;;;;;;;10.00;4.53;;;;;;;;;;6219772;28;20492;-77
2022/03/13 16:44:32;;;;;;;14.10;5.78;;;;;;;;;;6219811;28;20072;-75
2022/03/13 16:47:39;;;;;;;11.02;6.30;;;;;;;;;;6220093;28;20049;-77
2022/03/13 16:50:45;;;;;;;14.15;6.65;;;;;;;;;;6219215;28;20057;-76
2022/03/13 16:53:48;;;;;;;12.43;6.68;;;;;;;;;;6201565;28;20184;-78
2022/03/13 16:56:54;;;;;;;12.02;5.80;;;;;;;;;;6220208;28;20046;-77
2022/03/13 16:59:57;;;;;;;16.77;6.53;;;;;;;;;;6219811;28;20057;-75
2022/03/13 17:03:03;;;;;;;10.77;5.22;;;;;;;;;;6218783;28;20093;-77
2022/03/13 17:06:09;;;;;;;9.57;5.75;;;;;;;;;;6219875;28;20373;-78
2022/03/13 17:09:12;;;;;;;13.95;6.03;;;;;;;;;;6219500;28;20053;-76
2022/03/13 17:12:16;;;;;;;10.38;5.30;;;;;;;;;;6219265;28;20056;-77
2022/03/13 17:15:21;;;;;;;11.35;5.40;;;;;;;;;;6219017;28;20442;-77
2022/03/13 17:18:26;;;;;;;12.80;4.85;;;;;;;;;;6219221;28;20050;-77
2022/03/13 17:21:32;;;;;;;8.70;5.00;;;;;;;;;;6219194;28;20547;-76
2022/03/13 17:24:35;;;;;;;7.53;4.18;;;;;;;;;;6218466;28;20100;-77
2022/03/13 17:27:38;;;;;;;10.43;4.55;;;;;;;;;;6219022;28;20129;-77
2022/03/13 17:30:44;;;;;;;13.43;4.55;;;;;;;;;;6201177;28;20477;-76
2022/03/13 17:33:52;;;;;;;11.73;4.85;;;;;;;;;;6218974;28;20057;-76
2022/03/13 17:36:55;;;;;;;11.02;4.70;;;;;;;;;;6218443;28;20057;-77
2022/03/13 17:39:58;;;;;;;10.85;5.47;;;;;;;;;;6218540;28;20046;-78
2022/03/13 17:43:02;;;;;;;15.15;5.20;;;;;;;;;;6218677;28;20046;-77
2022/03/13 17:46:05;;;;;;;24.63;6.25;;;;;;;;;;6200340;28;20049;-75
2022/03/13 17:49:09;;;;;;;13.35;5.32;;;;;;;;;;6218922;28;20042;-78
2022/03/13 17:52:12;;;;;;;10.45;5.13;;;;;;;;;;6218334;28;20050;-76
2022/03/13 17:55:15;;;;;;;13.18;5.13;;;;;;;;;;6217963;28;20052;-77
2022/03/13 17:58:19;;;;;;;8.77;4.80;;;;;;;;;;6218371;28;20052;-76
2022/03/13 18:01:24;;;;;;;10.90;4.80;;;;;;;;;;6218040;28;20053;-77
2022/03/13 18:04:28;;;;;;;13.90;5.45;;;;;;;;;;6217920;28;20046;-77
2022/03/13 18:07:33;;;;;;;16.73;5.95;;;;;;;;;;6216289;28;20619;-75
2022/03/13 18:10:36;;;;;;;13.95;5.97;;;;;;;;;;6218570;28;20485;-75
2022/03/13 18:13:42;;;;;;;24.73;9.02;;;;;;;;;;6218150;28;20049;-76